< Typhoon 200810 2008 Season Typhoon 200812 >
Typhoon 200811 (VONGFONG)
General InformationTrack Information on Google MapsDetailed Wind InformationAccess Analytics MapList of All Images || NewsDisaster Info.WeblogTrackbackTyphoon FrontTyphoon ImaginationResourceGoogle EarthGE AnimationAtom FeedGeoJSON
Detalied Best Track (Time Zone = UTC)
Year Month Day Hour Lat. Long. Pressure (hPa) Wind (kt) Class Image Chart
2008 8 13 18 23.7 132.6 1004 0 2 Image Chart
2008 8 14 00 25.1 132.8 1002 0 2 Image Chart
2008 8 14 06 26.1 133.1 1002 0 2 Image Chart
2008 8 14 12 27.1 133.5 1002 0 2 Image Chart
2008 8 14 18 28.1 134.0 1002 0 2 Image Chart
2008 8 15 00 29.2 134.6 1000 0 2 Image Chart
2008 8 15 06 30.2 135.5 996 35 3 Image Chart
2008 8 15 12 30.9 136.7 996 35 3 Image Chart
2008 8 15 15 31.4 137.8 996 35 3 Image Chart
2008 8 15 18 32.0 138.9 994 40 3 Image Chart
2008 8 15 21 32.4 139.7 994 40 3 Image Chart
2008 8 16 00 32.8 140.8 992 45 3 Image Chart
2008 8 16 03 33.2 141.8 992 45 3 Image Chart
2008 8 16 06 33.7 143.0 990 50 4 Image Chart
2008 8 16 12 34.6 145.4 990 50 4 Image Chart
2008 8 16 18 35.9 148.2 990 50 4 Image Chart
2008 8 17 00 37.5 151.2 990 50 4 Image Chart
2008 8 17 06 39.1 154.9 990 50 4 Image Chart
2008 8 17 12 40.7 159.2 990 50 4 Image Chart
2008 8 17 18 42.4 164.3 990 50 4 Image Chart
2008 8 18 00 44.1 168.5 992 0 6 Image Chart
2008 8 18 06 46.1 172.0 992 0 6 Image Chart
2008 8 18 12 47.5 176.5 992 0 6 Image Chart
2008 8 18 18 48.1 181.5 996 0 6 Image Chart
Japan Meteorological Agency Best Track Data | Correction Date : 2008-09-30
< Typhoon 200810 2008 Season Typhoon 200812 >

Help